Terminal Aerodrome Forecast
Issued by NWS

Home | Current Version | Previous Version | Text Only | Print | Product List | Glossary On
Versions: 1 2 3 4 5 6 7 8 9 10 11 12 13 14 15 16 17 18 19 20 21 22 23 24 25 26 27 28 29 30
000
FTUS43 KDLH 300541
TAFHIB
TAF
KHIB 300541Z 3006/3106 00000KT 3SM BR SKC
      TEMPO 3006/3009 1SM BR
     FM300900 00000KT 1SM BR SKC
      TEMPO 3009/3012 1/2SM FG
     FM301500 27010G17KT P6SM SCT070
     FM301800 24010G17KT P6SM VCSH BKN070
     FM310000 15005KT P6SM VCSH OVC100=

USA.gov is the U.S. government's official web portal to all federal, state and local government web resources and services.